Monroe, Michigan
Current Conditions -  °F | °C
As of 10:14 AM on Sunday 21 Dec 2014 (Local Time) from KTTF Reporting Station
Haze Haze  
Wind Chill: 28°   Ceiling: Unl
Heat Index: 28°   Visibility: 5mi
Dew Point: 27°   Wind: 0mph
Humidity: 93%   Direction: NA
Pressure: 30.3"   Gusts: NA
Location:  41.92°N, 83.4°W
Report Text: KTTF 211514Z AUTO 00000KT 5SM BR CLR M02/M03 A3030 RMK AO2
Loading
Personal Weather Stations






























Interactive Weather Map New forecast layout! Learn more

10-Day Weather Forecast

Advertisements
Track Severe Weather on mobile